createdAt,value
2018-02-24T00:01:41.467Z,18.60
2018-02-24T00:04:08.820Z,17.83
2018-02-24T00:06:36.412Z,17.60
2018-02-24T00:09:03.797Z,18.33
2018-02-24T00:11:32.072Z,17.80
2018-02-24T00:13:59.437Z,17.77
2018-02-24T00:16:27.948Z,17.50
2018-02-24T00:18:56.044Z,17.30
2018-02-24T00:21:23.400Z,16.50
2018-02-24T00:23:50.760Z,17.37
2018-02-24T00:26:18.871Z,18.60
2018-02-24T00:28:46.296Z,17.73
2018-02-24T00:31:13.976Z,17.10
2018-02-24T00:33:42.213Z,16.57
2018-02-24T00:36:09.584Z,16.43
2018-02-24T00:38:37.866Z,18.80
2018-02-24T00:41:05.265Z,17.27
2018-02-24T00:43:33.399Z,16.90
2018-02-24T00:46:00.740Z,18.27
2018-02-24T00:48:28.143Z,18.67
2018-02-24T00:50:56.217Z,17.80
2018-02-24T00:53:24.362Z,16.90
2018-02-24T00:55:51.694Z,17.43
2018-02-24T00:58:19.801Z,17.77
2018-02-24T01:00:47.176Z,16.70
2018-02-24T01:03:15.430Z,17.97
2018-02-24T01:05:42.785Z,16.87
2018-02-24T01:08:10.866Z,16.10
2018-02-24T01:10:38.987Z,16.27
2018-02-24T01:13:06.336Z,17.77
2018-02-24T01:15:34.457Z,16.67
2018-02-24T01:18:01.782Z,17.40
2018-02-24T01:20:30.072Z,17.20
2018-02-24T01:22:57.463Z,16.80
2018-02-24T01:25:25.095Z,16.50
2018-02-24T01:27:53.387Z,17.23
2018-02-24T01:30:21.819Z,16.97
2018-02-24T01:32:49.260Z,16.40
2018-02-24T01:35:17.364Z,17.20
2018-02-24T01:37:44.919Z,16.03
2018-02-24T01:40:13.037Z,17.03
2018-02-24T01:42:41.275Z,17.80
2018-02-24T01:45:09.556Z,17.20
2018-02-24T01:47:37.808Z,16.77
2018-02-24T01:50:05.185Z,16.03
2018-02-24T01:52:32.517Z,17.43
2018-02-24T01:55:00.661Z,16.70
2018-02-24T01:57:28.826Z,15.80
2018-02-24T01:59:56.189Z,15.33
2018-02-24T02:02:23.589Z,16.03
2018-02-24T02:04:51.895Z,16.00
2018-02-24T02:07:19.994Z,17.27
2018-02-24T02:09:47.343Z,16.50
2018-02-24T02:12:15.460Z,17.47
2018-02-24T02:14:42.819Z,14.87
2018-02-24T02:17:11.121Z,15.97
2018-02-24T02:19:39.248Z,16.63
2018-02-24T02:22:07.321Z,16.50
2018-02-24T02:24:34.720Z,16.03
2018-02-24T02:27:02.839Z,17.00
2018-02-24T02:29:31.104Z,16.53
2018-02-24T02:31:58.457Z,16.60
2018-02-24T02:34:25.861Z,16.87
2018-02-24T02:36:53.503Z,16.73
2018-02-24T02:39:20.872Z,16.47
2018-02-24T02:41:48.285Z,16.60
2018-02-24T02:44:15.634Z,16.13
2018-02-24T02:46:43.975Z,16.23
2018-02-24T02:49:12.066Z,16.30
2018-02-24T02:51:40.207Z,14.27
2018-02-24T02:54:08.473Z,16.13
2018-02-24T02:56:36.549Z,16.07
2018-02-24T02:59:05.004Z,15.67
2018-02-24T03:01:33.192Z,15.10
2018-02-24T03:04:00.714Z,15.10
2018-02-24T03:06:28.055Z,15.67
2018-02-24T03:08:56.272Z,15.93
2018-02-24T03:11:23.629Z,15.80
2018-02-24T03:13:51.023Z,16.00
2018-02-24T03:16:19.124Z,16.13
2018-02-24T03:18:47.408Z,15.00
2018-02-24T03:21:14.948Z,14.87
2018-02-24T03:23:42.289Z,15.17
2018-02-24T03:26:10.427Z,16.10
2018-02-24T03:28:37.881Z,17.27
2018-02-24T03:31:05.201Z,16.00
2018-02-24T03:33:33.321Z,16.27
2018-02-24T03:36:01.576Z,16.60
2018-02-24T03:38:28.916Z,16.20
2018-02-24T03:40:56.343Z,16.67
2018-02-24T03:43:24.507Z,16.50
2018-02-24T03:45:53.463Z,16.00
2018-02-24T03:48:21.880Z,16.10
2018-02-24T03:50:49.384Z,17.03
2018-02-24T03:53:17.730Z,16.77
2018-02-24T03:55:45.900Z,16.23
2018-02-24T03:58:14.147Z,17.67
2018-02-24T04:00:42.463Z,16.03
2018-02-24T04:03:10.637Z,17.63
2018-02-24T04:05:38.160Z,17.03
2018-02-24T04:08:05.509Z,15.87
2018-02-24T04:10:33.735Z,17.03
2018-02-24T04:13:01.076Z,17.27
2018-02-24T04:15:29.540Z,17.73
2018-02-24T04:17:56.888Z,18.20
2018-02-24T04:20:24.228Z,17.20
2018-02-24T04:22:52.956Z,18.47
2018-02-24T04:25:20.299Z,17.40
2018-02-24T04:27:48.428Z,17.00
2018-02-24T04:30:16.683Z,18.87
2018-02-24T04:32:44.080Z,17.73
2018-02-24T04:35:11.422Z,17.37
2018-02-24T04:37:39.540Z,18.07
2018-02-24T04:40:06.885Z,18.10
2018-02-24T04:42:34.422Z,18.00
2018-02-24T04:45:01.941Z,16.17
2018-02-24T04:47:29.307Z,18.73
2018-02-24T04:49:57.459Z,18.03
2018-02-24T04:52:25.539Z,19.87
2018-02-24T04:54:52.933Z,18.97
2018-02-24T04:57:20.511Z,17.77
2018-02-24T04:59:47.879Z,17.57
2018-02-24T05:02:15.220Z,18.47
2018-02-24T05:04:42.591Z,18.87
2018-02-24T05:07:10.663Z,18.53
2018-02-24T05:09:38.228Z,17.90
2018-02-24T05:12:06.292Z,17.43
2018-02-24T05:14:33.816Z,19.03
2018-02-24T05:17:01.190Z,19.37
2018-02-24T05:19:29.092Z,18.60
2018-02-24T05:21:57.511Z,18.30
2018-02-24T05:24:25.596Z,18.90
2018-02-24T05:26:53.672Z,18.50
2018-02-24T05:29:21.048Z,20.03
2018-02-24T05:31:49.144Z,17.50
2018-02-24T05:34:17.463Z,19.83
2018-02-24T05:36:44.855Z,19.00
2018-02-24T05:39:12.216Z,18.97
2018-02-24T05:41:40.535Z,17.33
2018-02-24T05:44:07.928Z,17.03
2018-02-24T05:46:35.315Z,18.57
2018-02-24T05:49:03.449Z,18.40
2018-02-24T05:51:30.803Z,18.57
2018-02-24T05:53:58.879Z,19.27
2018-02-24T05:56:27.005Z,17.93
2018-02-24T05:58:54.385Z,19.30
2018-02-24T06:01:21.789Z,19.23
2018-02-24T06:03:49.139Z,19.03
2018-02-24T06:06:16.735Z,18.57
2018-02-24T06:08:44.988Z,18.93
2018-02-24T06:11:13.136Z,17.50
2018-02-24T06:13:40.456Z,19.50
2018-02-24T06:16:07.806Z,17.77
2018-02-24T06:18:36.020Z,20.17
2018-02-24T06:21:03.352Z,20.23
2018-02-24T06:23:30.740Z,20.23
2018-02-24T06:25:58.200Z,21.30
2018-02-24T06:28:25.544Z,18.30
2018-02-24T06:30:53.820Z,17.40
2018-02-24T06:33:21.153Z,20.70
2018-02-24T06:35:48.591Z,20.07
2018-02-24T06:38:15.936Z,19.50
2018-02-24T06:40:43.339Z,20.93
2018-02-24T06:43:10.673Z,19.47
2018-02-24T06:45:38.964Z,18.97
2018-02-24T06:48:06.303Z,19.30
2018-02-24T06:50:34.416Z,17.87
2018-02-24T06:53:02.717Z,20.60
2018-02-24T06:55:30.364Z,21.13
2018-02-24T06:57:58.633Z,19.67
2018-02-24T07:00:27.908Z,19.57
2018-02-24T07:02:55.269Z,19.40
2018-02-24T07:05:23.572Z,18.80
2018-02-24T07:07:51.564Z,18.20
2018-02-24T07:10:19.851Z,19.27
2018-02-24T07:12:47.418Z,19.37
2018-02-24T07:15:15.803Z,19.30
2018-02-24T07:17:44.499Z,20.04
2018-02-24T07:20:12.652Z,18.40
2018-02-24T07:22:40.951Z,19.90
2018-02-24T07:25:08.328Z,18.47
2018-02-24T07:27:36.439Z,18.17
2018-02-24T07:30:04.533Z,18.13
2018-02-24T07:32:32.692Z,19.70
2018-02-24T07:35:00.050Z,20.93
2018-02-24T07:37:28.192Z,18.87
2018-02-24T07:39:56.383Z,20.67
2018-02-24T07:42:24.492Z,19.97
2018-02-24T07:44:52.799Z,18.93
2018-02-24T07:47:21.082Z,19.13
2018-02-24T07:49:49.342Z,20.33
2018-02-24T07:52:18.090Z,18.03
2018-02-24T07:54:45.743Z,18.60
2018-02-24T07:57:13.103Z,19.40
2018-02-24T07:59:41.212Z,19.17
2018-02-24T08:02:08.899Z,19.13
2018-02-24T08:04:37.055Z,20.13
2018-02-24T08:07:05.826Z,19.77
2018-02-24T08:09:33.253Z,20.93
2018-02-24T08:12:00.632Z,18.30
2018-02-24T08:14:28.008Z,18.70
2018-02-24T08:16:56.644Z,19.00
2018-02-24T08:19:25.406Z,17.00
2018-02-24T08:21:53.775Z,18.93
2018-02-24T08:24:21.877Z,18.03
2018-02-24T08:26:49.250Z,17.17
2018-02-24T08:29:17.384Z,19.00
2018-02-24T08:31:45.524Z,18.17
2018-02-24T08:34:13.835Z,17.40
2018-02-24T08:36:41.211Z,17.53
2018-02-24T08:39:08.600Z,17.97
2018-02-24T08:41:36.923Z,18.73
2018-02-24T08:44:05.010Z,17.73
2018-02-24T08:46:32.461Z,17.33
2018-02-24T08:49:00.545Z,18.37
2018-02-24T08:51:28.832Z,18.07
2018-02-24T08:53:56.269Z,17.87
2018-02-24T08:56:24.392Z,18.07
2018-02-24T08:58:53.026Z,18.17
2018-02-24T09:01:20.524Z,17.93
2018-02-24T09:03:48.834Z,16.53
2018-02-24T09:06:16.943Z,17.87
2018-02-24T09:08:44.528Z,17.30
2018-02-24T09:11:11.903Z,17.67
2018-02-24T09:13:40.008Z,17.53
2018-02-24T09:16:08.299Z,17.60
2018-02-24T09:18:36.413Z,20.77
2018-02-24T09:21:04.647Z,16.37
2018-02-24T09:23:32.052Z,18.23
2018-02-24T09:26:00.244Z,17.43
2018-02-24T09:28:28.304Z,17.93
2018-02-24T09:30:55.736Z,17.43
2018-02-24T09:33:24.025Z,17.60
2018-02-24T09:35:52.155Z,18.10
2018-02-24T09:38:19.538Z,17.43
2018-02-24T09:40:47.796Z,17.20
2018-02-24T09:43:15.156Z,17.00
2018-02-24T09:45:43.572Z,17.00
2018-02-24T09:48:11.805Z,16.00
2018-02-24T09:50:40.020Z,16.20
2018-02-24T09:53:08.481Z,16.70
2018-02-24T09:55:35.929Z,15.10
2018-02-24T09:58:03.326Z,15.23
2018-02-24T10:00:31.652Z,15.97
2018-02-24T10:02:59.016Z,15.37
2018-02-24T10:05:27.212Z,15.83
2018-02-24T10:07:54.589Z,15.90
2018-02-24T10:10:22.688Z,15.53
2018-02-24T10:12:50.061Z,15.17
2018-02-24T10:15:27.259Z,15.37
2018-02-24T10:17:55.982Z,14.20
2018-02-24T10:20:23.352Z,14.40
2018-02-24T10:22:50.745Z,14.40
2018-02-24T10:25:18.120Z,14.17
2018-02-24T10:27:45.506Z,14.83
2018-02-24T10:30:17.544Z,17.45
2018-02-24T10:32:49.970Z,15.50
2018-02-24T10:35:19.675Z,14.50
2018-02-24T10:37:48.632Z,14.30
2018-02-24T10:40:16.115Z,14.20
2018-02-24T10:42:49.336Z,14.27
2018-02-24T10:45:17.692Z,13.97
2018-02-24T10:47:45.121Z,13.80
2018-02-24T10:50:12.501Z,13.33
2018-02-24T10:52:39.938Z,12.33
2018-02-24T10:55:07.318Z,13.40
2018-02-24T10:57:34.712Z,12.70
2018-02-24T11:00:08.439Z,13.80
2018-02-24T11:02:38.843Z,12.27
2018-02-24T11:05:07.157Z,12.67
2018-02-24T11:07:34.772Z,13.00
2018-02-24T11:10:02.446Z,12.73
2018-02-24T11:12:32.589Z,13.10
2018-02-24T11:15:00.285Z,13.53
2018-02-24T11:17:27.690Z,13.30
2018-02-24T11:19:55.804Z,16.48
2018-02-24T11:22:23.212Z,14.00
2018-02-24T11:24:50.768Z,16.15
2018-02-24T11:27:23.679Z,16.20
2018-02-24T11:29:54.964Z,15.43
2018-02-24T11:32:22.449Z,15.53
2018-02-24T11:34:52.721Z,15.00
2018-02-24T11:37:20.245Z,14.60
2018-02-24T11:39:47.899Z,15.20
2018-02-24T11:42:29.027Z,15.73
2018-02-24T11:45:14.611Z,14.47
2018-02-24T11:47:42.011Z,15.27
2018-02-24T11:50:12.570Z,14.03
2018-02-24T11:52:40.080Z,14.13
2018-02-24T11:55:07.425Z,14.30
2018-02-24T11:57:41.661Z,14.10
2018-02-24T12:00:13.646Z,13.97
2018-02-24T12:02:41.068Z,12.37
2018-02-24T12:05:09.266Z,14.37
2018-02-24T12:07:39.581Z,12.80
2018-02-24T12:10:07.725Z,13.23
2018-02-24T12:12:35.101Z,12.80
2018-02-24T12:15:03.547Z,13.13
2018-02-24T12:17:30.940Z,12.67
2018-02-24T12:19:59.225Z,13.30
2018-02-24T12:22:27.636Z,13.37
2018-02-24T12:24:55.027Z,13.07
2018-02-24T12:27:27.037Z,12.63
2018-02-24T12:29:58.100Z,12.57
2018-02-24T12:32:31.376Z,12.60
2018-02-24T12:34:58.893Z,12.00
2018-02-24T12:37:27.312Z,11.87
2018-02-24T12:39:54.736Z,11.33
2018-02-24T12:42:24.992Z,12.33
2018-02-24T12:44:54.376Z,11.93
2018-02-24T12:47:21.732Z,11.53
2018-02-24T12:49:51.708Z,12.13
2018-02-24T12:52:20.104Z,11.00
2018-02-24T12:54:47.477Z,10.93
2018-02-24T12:57:18.392Z,10.93
2018-02-24T12:59:46.649Z,10.93
2018-02-24T13:02:14.069Z,11.17
2018-02-24T13:04:41.508Z,11.43
2018-02-24T13:07:08.984Z,10.67
2018-02-24T13:09:36.437Z,10.73
2018-02-24T13:12:08.392Z,10.90
2018-02-24T13:14:38.316Z,10.97
2018-02-24T13:17:05.692Z,11.33
2018-02-24T13:19:36.816Z,10.73
2018-02-24T13:24:36.201Z,11.13
2018-02-24T13:27:03.580Z,10.73
2018-02-24T13:29:31.835Z,10.93
2018-02-24T13:32:00.027Z,10.33
2018-02-24T13:34:28.203Z,10.10
2018-02-24T13:36:55.604Z,10.93
2018-02-24T13:39:23.048Z,10.37
2018-02-24T13:41:51.160Z,10.60
2018-02-24T13:44:19.588Z,9.60
2018-02-24T13:46:46.941Z,9.07
2018-02-24T13:49:15.243Z,9.27
2018-02-24T13:51:42.604Z,8.83
2018-02-24T13:54:10.695Z,10.10
2018-02-24T13:56:38.827Z,8.83
2018-02-24T13:59:07.001Z,8.70
2018-02-24T14:01:34.391Z,9.43
2018-02-24T14:04:02.651Z,9.20
2018-02-24T14:06:30.187Z,9.43
2018-02-24T14:08:58.337Z,9.23
2018-02-24T14:11:25.729Z,8.50
2018-02-24T14:13:54.160Z,8.87
2018-02-24T14:16:21.537Z,8.80
2018-02-24T14:18:48.992Z,9.00
2018-02-24T14:21:16.332Z,8.47
2018-02-24T14:23:44.856Z,8.23
2018-02-24T14:26:12.948Z,7.63
2018-02-24T14:28:41.453Z,8.80
2018-02-24T14:31:09.661Z,7.77
2018-02-24T14:33:37.116Z,7.37
2018-02-24T14:36:05.204Z,8.23
2018-02-24T14:38:32.536Z,7.43
2018-02-24T14:40:59.928Z,8.75
2018-02-24T14:43:27.280Z,7.13
2018-02-24T14:45:55.416Z,7.10
2018-02-24T14:48:23.495Z,6.53
2018-02-24T14:50:51.687Z,6.90
2018-02-24T14:53:19.041Z,6.97
2018-02-24T14:55:46.440Z,6.93
2018-02-24T14:58:14.568Z,6.97
2018-02-24T15:00:41.941Z,7.33
2018-02-24T15:03:10.280Z,8.55
2018-02-24T15:05:37.631Z,6.93
2018-02-24T15:08:05.064Z,7.13
2018-02-24T15:10:33.358Z,7.07
2018-02-24T15:13:01.462Z,6.63
2018-02-24T15:15:29.581Z,7.62
2018-02-24T15:17:58.047Z,7.13
2018-02-24T15:20:25.485Z,8.07
2018-02-24T15:22:52.803Z,7.37
2018-02-24T15:25:20.961Z,6.97
2018-02-24T15:27:48.288Z,7.03
2018-02-24T15:30:16.440Z,6.90
2018-02-24T15:32:43.788Z,6.13
2018-02-24T15:35:11.191Z,6.23
2018-02-24T15:37:38.575Z,6.03
2018-02-24T15:40:05.936Z,6.00
2018-02-24T15:42:33.321Z,5.50
2018-02-24T15:45:01.659Z,6.00
2018-02-24T15:47:29.989Z,6.30
2018-02-24T15:49:58.274Z,6.73
2018-02-24T15:52:26.510Z,6.30
2018-02-24T15:54:53.888Z,6.00
2018-02-24T15:57:22.183Z,6.27
2018-02-24T15:59:49.616Z,5.83
2018-02-24T16:02:17.739Z,6.60
2018-02-24T16:04:45.088Z,5.80
2018-02-24T16:07:12.479Z,6.23
2018-02-24T16:09:39.968Z,5.93
2018-02-24T16:12:08.270Z,6.93
2018-02-24T16:14:36.427Z,5.93
2018-02-24T16:17:04.692Z,6.43
2018-02-24T16:19:32.073Z,6.40
2018-02-24T16:21:59.446Z,6.87
2018-02-24T16:24:26.881Z,6.90
2018-02-24T16:26:55.152Z,6.63
2018-02-24T16:29:23.454Z,6.10
2018-02-24T16:31:51.529Z,6.40
2018-02-24T16:34:19.979Z,6.17
2018-02-24T16:36:48.281Z,6.80
2018-02-24T16:39:16.366Z,6.77
2018-02-24T16:41:43.797Z,6.00
2018-02-24T16:44:12.056Z,7.00
2018-02-24T16:46:40.414Z,7.07
2018-02-24T16:49:08.689Z,6.63
2018-02-24T16:51:36.881Z,6.87
2018-02-24T16:54:05.296Z,6.57
2018-02-24T16:56:33.780Z,6.53
2018-02-24T16:59:02.157Z,7.50
2018-02-24T17:01:29.541Z,6.87
2018-02-24T17:03:57.784Z,6.43
2018-02-24T17:06:27.139Z,7.20
2018-02-24T17:08:54.572Z,7.20
2018-02-24T17:11:22.791Z,6.90
2018-02-24T17:13:50.993Z,7.10
2018-02-24T17:16:18.452Z,6.97
2018-02-24T17:18:46.164Z,6.60
2018-02-24T17:21:13.535Z,7.40
2018-02-24T17:23:41.880Z,6.90
2018-02-24T17:26:09.409Z,7.17
2018-02-24T17:28:37.499Z,7.30
2018-02-24T17:31:04.898Z,7.40
2018-02-24T17:33:32.261Z,6.33
2018-02-24T17:35:59.940Z,6.57
2018-02-24T17:38:27.316Z,6.40
2018-02-24T17:40:55.479Z,6.87
2018-02-24T17:43:23.614Z,7.23
2018-02-24T17:45:51.940Z,6.47
2018-02-24T17:48:19.331Z,6.10
2018-02-24T17:50:46.920Z,5.60
2018-02-24T17:53:15.129Z,6.47
2018-02-24T17:55:42.525Z,5.40
2018-02-24T17:58:10.823Z,5.10
2018-02-24T18:00:38.276Z,5.83
2018-02-24T18:03:05.753Z,6.10
2018-02-24T18:05:34.203Z,5.50
2018-02-24T18:08:02.396Z,6.57
2018-02-24T18:10:30.992Z,5.57
2018-02-24T18:12:59.143Z,5.80
2018-02-24T18:15:27.424Z,6.07
2018-02-24T18:17:55.552Z,6.33
2018-02-24T18:22:48.975Z,6.27
2018-02-24T18:25:17.158Z,6.60
2018-02-24T18:27:45.495Z,6.40
2018-02-24T18:30:13.788Z,6.63
2018-02-24T18:32:41.972Z,6.40
2018-02-24T18:35:09.348Z,5.97
2018-02-24T18:37:36.966Z,7.40
2018-02-24T18:40:05.069Z,7.87
2018-02-24T18:42:32.897Z,6.90
2018-02-24T18:45:00.406Z,6.70
2018-02-24T18:47:28.707Z,6.97
2018-02-24T18:49:56.875Z,6.43
2018-02-24T18:52:25.148Z,6.60
2018-02-24T18:54:52.502Z,6.60
2018-02-24T18:57:20.795Z,6.83
2018-02-24T18:59:49.440Z,6.47
2018-02-24T19:02:16.800Z,7.60
2018-02-24T19:04:44.944Z,6.83
2018-02-24T19:07:12.493Z,6.77
2018-02-24T19:09:40.760Z,6.67
2018-02-24T19:12:08.897Z,5.83
2018-02-24T19:14:37.025Z,6.47
2018-02-24T19:17:04.481Z,7.00
2018-02-24T19:19:32.631Z,7.37
2018-02-24T19:22:00.745Z,7.03
2018-02-24T19:24:28.935Z,7.33
2018-02-24T19:26:56.493Z,7.33
2018-02-24T19:29:23.888Z,6.67
2018-02-24T19:31:52.159Z,6.63
2018-02-24T19:34:19.520Z,6.57
2018-02-24T19:36:47.605Z,6.10
2018-02-24T19:39:15.052Z,6.80
2018-02-24T19:41:43.674Z,6.83
2018-02-24T19:44:12.004Z,6.60
2018-02-24T19:46:39.361Z,6.50
2018-02-24T19:49:06.805Z,6.07
2018-02-24T19:51:34.240Z,6.37
2018-02-24T19:54:02.312Z,6.50
2018-02-24T19:56:30.782Z,6.27
2018-02-24T19:58:58.173Z,6.37
2018-02-24T20:01:26.462Z,6.17
2018-02-24T20:03:54.765Z,5.40
2018-02-24T20:06:23.020Z,5.40
2018-02-24T20:08:50.458Z,5.60
2018-02-24T20:11:18.716Z,5.17
2018-02-24T20:13:46.256Z,5.80
2018-02-24T20:16:13.638Z,5.53
2018-02-24T20:18:42.014Z,6.00
2018-02-24T20:21:09.381Z,5.20
2018-02-24T20:23:37.678Z,6.30
2018-02-24T20:26:06.136Z,6.40
2018-02-24T20:28:33.531Z,5.70
2018-02-24T20:31:01.648Z,5.20
2018-02-24T20:33:29.928Z,5.43
2018-02-24T20:35:57.335Z,5.03
2018-02-24T20:38:25.406Z,5.07
2018-02-24T20:40:52.807Z,5.17
2018-02-24T20:43:21.136Z,5.40
2018-02-24T20:45:48.544Z,5.70
2018-02-24T20:48:16.884Z,5.50
2018-02-24T20:50:44.267Z,5.87
2018-02-24T20:53:12.559Z,5.87
2018-02-24T20:55:39.968Z,5.17
2018-02-24T20:58:07.451Z,5.60
2018-02-24T21:00:35.756Z,5.60
2018-02-24T21:03:03.984Z,5.23
2018-02-24T21:05:31.505Z,5.10
2018-02-24T21:07:58.884Z,5.53
2018-02-24T21:10:26.278Z,5.80
2018-02-24T21:12:54.388Z,5.57
2018-02-24T21:15:21.810Z,5.23
2018-02-24T21:17:50.087Z,5.40
2018-02-24T21:20:18.266Z,4.53
2018-02-24T21:22:46.504Z,4.90
2018-02-24T21:25:13.865Z,5.47
2018-02-24T21:27:41.225Z,5.10
2018-02-24T21:30:08.619Z,5.00
2018-02-24T21:32:36.018Z,5.47
2018-02-24T21:35:04.346Z,5.70
2018-02-24T21:37:32.496Z,5.30
2018-02-24T21:40:00.302Z,5.20
2018-02-24T21:42:27.687Z,5.07
2018-02-24T21:44:55.980Z,5.37
2018-02-24T21:47:24.116Z,4.97
2018-02-24T21:49:51.472Z,5.67
2018-02-24T21:52:18.929Z,12.67
2018-02-24T21:54:47.287Z,5.20
2018-02-24T21:57:15.519Z,6.43
2018-02-24T21:59:43.884Z,5.90
2018-02-24T22:02:12.056Z,7.50
2018-02-24T22:04:39.428Z,6.17
2018-02-24T22:07:06.784Z,6.90
2018-02-24T22:09:34.148Z,6.33
2018-02-24T22:12:01.560Z,5.17
2018-02-24T22:14:28.922Z,6.00
2018-02-24T22:16:57.245Z,6.73
2018-02-24T22:19:25.377Z,5.20
2018-02-24T22:21:53.553Z,5.40
2018-02-24T22:24:20.936Z,5.07
2018-02-24T22:26:48.269Z,4.67
2018-02-24T22:29:16.474Z,5.10
2018-02-24T22:31:43.817Z,4.57
2018-02-24T22:34:11.183Z,5.13
2018-02-24T22:36:39.479Z,4.73
2018-02-24T22:39:22.267Z,5.37
2018-02-24T22:41:56.452Z,5.07
2018-02-24T22:44:23.988Z,5.17
2018-02-24T22:46:51.372Z,5.00
2018-02-24T22:49:18.798Z,5.10
2018-02-24T22:51:46.936Z,4.77
2018-02-24T22:54:18.180Z,4.90
2018-02-24T22:56:48.353Z,5.00
2018-02-24T22:59:26.051Z,4.53
2018-02-24T23:01:59.660Z,4.87
2018-02-24T23:04:27.930Z,4.20
2018-02-24T23:07:03.501Z,5.00
2018-02-24T23:09:32.141Z,5.13
2018-02-24T23:11:59.588Z,5.10
2018-02-24T23:14:27.182Z,4.97
2018-02-24T23:16:54.565Z,4.73
2018-02-24T23:19:22.082Z,4.70
2018-02-24T23:21:49.434Z,4.97
2018-02-24T23:24:16.940Z,4.40
2018-02-24T23:26:44.331Z,4.50
2018-02-24T23:29:11.840Z,5.23
2018-02-24T23:31:39.231Z,4.73
2018-02-24T23:34:07.895Z,5.13
2018-02-24T23:36:35.236Z,5.03
2018-02-24T23:39:02.601Z,4.83
2018-02-24T23:41:30.922Z,4.90
2018-02-24T23:43:58.395Z,4.60
2018-02-24T23:46:26.516Z,5.30
2018-02-24T23:48:54.763Z,4.50
2018-02-24T23:51:22.193Z,4.80
2018-02-24T23:53:49.567Z,4.50
2018-02-24T23:56:17.497Z,4.30
2018-02-24T23:58:46.987Z,5.07
